sensor_id;sensor_type;location;lat;lon;timestamp;pressure;altitude;pressure_sealevel;temperature;humidity
31096;BME280;17749;51.962;8.560;2023-03-03T06:06:18;100859.22;;;0.58;100.00
31096;BME280;17749;51.962;8.560;2023-03-03T06:08:51;100860.91;;;0.55;100.00
31096;BME280;17749;51.962;8.560;2023-03-03T06:11:29;100860.13;;;0.62;100.00
31096;BME280;17749;51.962;8.560;2023-03-03T06:13:58;100857.44;;;0.56;100.00
31096;BME280;17749;51.962;8.560;2023-03-03T06:16:25;100860.09;;;0.59;100.00
31096;BME280;17749;51.962;8.560;2023-03-03T06:18:53;100867.09;;;0.60;100.00
31096;BME280;17749;51.962;8.560;2023-03-03T06:21:31;100863.63;;;0.61;100.00
31096;BME280;17749;51.962;8.560;2023-03-03T06:24:08;100868.06;;;0.68;100.00
31096;BME280;17749;51.962;8.560;2023-03-03T06:26:41;100875.94;;;0.68;100.00
31096;BME280;17749;51.962;8.560;2023-03-03T06:29:17;100865.41;;;0.65;100.00
31096;BME280;17749;51.962;8.560;2023-03-03T06:31:44;100875.03;;;0.63;100.00
31096;BME280;17749;51.962;8.560;2023-03-03T06:34:37;100864.47;;;0.58;100.00
31096;BME280;17749;51.962;8.560;2023-03-03T06:37:27;100874.16;;;0.64;100.00
31096;BME280;17749;51.962;8.560;2023-03-03T06:40:19;100881.09;;;0.62;100.00
31096;BME280;17749;51.962;8.560;2023-03-03T06:42:49;100886.38;;;0.65;100.00
31096;BME280;17749;51.962;8.560;2023-03-03T06:45:17;100891.72;;;0.71;100.00
31096;BME280;17749;51.962;8.560;2023-03-03T06:47:45;100888.22;;;0.72;100.00
31096;BME280;17749;51.962;8.560;2023-03-03T06:50:17;100897.91;;;0.76;100.00
31096;BME280;17749;51.962;8.560;2023-03-03T06:52:46;100903.16;;;0.76;100.00
31096;BME280;17749;51.962;8.560;2023-03-03T06:55:20;100892.56;;;0.70;100.00
31096;BME280;17749;51.962;8.560;2023-03-03T06:58:00;100896.97;;;0.71;100.00
31096;BME280;17749;51.962;8.560;2023-03-03T07:00:43;100900.34;;;0.62;100.00
31096;BME280;17749;51.962;8.560;2023-03-03T07:03:26;100905.56;;;0.61;100.00
31096;BME280;17749;51.962;8.560;2023-03-03T07:06:31;100907.34;;;0.65;100.00
31096;BME280;17749;51.962;8.560;2023-03-03T07:09:20;100917.00;;;0.68;100.00
31096;BME280;17749;51.962;8.560;2023-03-03T07:11:47;100919.63;;;0.66;100.00
31096;BME280;17749;51.962;8.560;2023-03-03T07:14:17;100919.63;;;0.68;100.00
31096;BME280;17749;51.962;8.560;2023-03-03T07:16:44;100922.25;;;0.68;100.00
31096;BME280;17749;51.962;8.560;2023-03-03T07:19:30;100931.91;;;0.70;100.00
31096;BME280;17749;51.962;8.560;2023-03-03T07:22:07;100933.59;;;0.68;100.00
31096;BME280;17749;51.962;8.560;2023-03-03T07:24:38;100943.25;;;0.69;100.00
31096;BME280;17749;51.962;8.560;2023-03-03T07:27:09;100940.66;;;0.72;100.00
31096;BME280;17749;51.962;8.560;2023-03-03T07:29:37;100944.97;;;0.65;100.00
31096;BME280;17749;51.962;8.560;2023-03-03T07:32:20;100949.31;;;0.65;100.00
31096;BME280;17749;51.962;8.560;2023-03-03T07:34:51;100954.53;;;0.65;100.00
31096;BME280;17749;51.962;8.560;2023-03-03T07:37:30;100952.81;;;0.64;100.00
31096;BME280;17749;51.962;8.560;2023-03-03T07:40:22;100952.00;;;0.70;100.00
31096;BME280;17749;51.962;8.560;2023-03-03T07:42:52;100959.00;;;0.71;100.00
31096;BME280;17749;51.962;8.560;2023-03-03T07:45:34;100955.53;;;0.73;100.00
31096;BME280;17749;51.962;8.560;2023-03-03T07:50:51;100963.53;;;0.82;100.00
31096;BME280;17749;51.962;8.560;2023-03-03T07:53:29;100966.13;;;0.81;100.00
31096;BME280;17749;51.962;8.560;2023-03-03T07:56:00;100967.03;;;0.81;100.00
31096;BME280;17749;51.962;8.560;2023-03-03T07:58:38;100964.38;;;0.80;100.00
31096;BME280;17749;51.962;8.560;2023-03-03T08:01:23;100976.69;;;0.84;100.00
31096;BME280;17749;51.962;8.560;2023-03-03T08:03:54;100972.28;;;0.81;100.00
31096;BME280;17749;51.962;8.560;2023-03-03T08:11:48;100976.81;;;0.96;100.00
31096;BME280;17749;51.962;8.560;2023-03-03T08:14:24;100974.31;;;1.07;100.00
31096;BME280;17749;51.962;8.560;2023-03-03T08:16:51;100972.69;;;1.15;100.00
31096;BME280;17749;51.962;8.560;2023-03-03T08:19:18;100976.22;;;1.17;100.00
31096;BME280;17749;51.962;8.560;2023-03-03T08:21:45;100976.31;;;1.23;100.00
31096;BME280;17749;51.962;8.560;2023-03-03T08:24:12;100979.78;;;1.22;100.00
31096;BME280;17749;51.962;8.560;2023-03-03T08:26:39;100978.03;;;1.21;100.00
31096;BME280;17749;51.962;8.560;2023-03-03T08:29:05;100985.00;;;1.22;100.00
31096;BME280;17749;51.962;8.560;2023-03-03T08:31:32;100981.53;;;1.22;100.00
31096;BME280;17749;51.962;8.560;2023-03-03T08:34:07;100984.09;;;1.19;100.00
31096;BME280;17749;51.962;8.560;2023-03-03T08:36:34;100984.94;;;1.18;100.00
31096;BME280;17749;51.962;8.560;2023-03-03T08:39:03;100982.41;;;1.21;100.00
31096;BME280;17749;51.962;8.560;2023-03-03T08:41:30;100983.25;;;1.23;100.00
31096;BME280;17749;51.962;8.560;2023-03-03T08:43:56;100987.75;;;1.31;100.00
31096;BME280;17749;51.962;8.560;2023-03-03T08:46:23;100986.94;;;1.39;100.00
31096;BME280;17749;51.962;8.560;2023-03-03T08:48:50;100988.69;;;1.37;100.00
31096;BME280;17749;51.962;8.560;2023-03-03T08:51:18;100988.75;;;1.43;100.00
31096;BME280;17749;51.962;8.560;2023-03-03T08:53:45;100988.78;;;1.46;100.00
31096;BME280;17749;51.962;8.560;2023-03-03T08:56:13;100982.63;;;1.42;100.00
31096;BME280;17749;51.962;8.560;2023-03-03T08:58:40;100987.03;;;1.45;100.00
31096;BME280;17749;51.962;8.560;2023-03-03T09:01:31;100994.19;;;1.58;100.00
31096;BME280;17749;51.962;8.560;2023-03-03T09:03:58;100988.97;;;1.64;100.00
31096;BME280;17749;51.962;8.560;2023-03-03T09:06:25;100987.34;;;1.75;100.00
31096;BME280;17749;51.962;8.560;2023-03-03T09:08:52;100991.81;;;1.84;100.00
31096;BME280;17749;51.962;8.560;2023-03-03T09:11:25;100992.81;;;1.94;100.00
31096;BME280;17749;51.962;8.560;2023-03-03T09:14:00;100990.19;;;1.97;100.00
31096;BME280;17749;51.962;8.560;2023-03-03T09:16:32;101000.69;;;1.94;100.00
31096;BME280;17749;51.962;8.560;2023-03-03T09:19:16;100996.31;;;1.94;100.00
31096;BME280;17749;51.962;8.560;2023-03-03T09:21:45;100996.31;;;1.99;100.00
31096;BME280;17749;51.962;8.560;2023-03-03T09:24:26;100995.47;;;2.02;100.00
31096;BME280;17749;51.962;8.560;2023-03-03T09:26:54;100999.00;;;2.02;100.00
31096;BME280;17749;51.962;8.560;2023-03-03T09:29:29;101004.31;;;2.10;100.00
31096;BME280;17749;51.962;8.560;2023-03-03T09:31:58;101006.09;;;2.12;100.00
31096;BME280;17749;51.962;8.560;2023-03-03T09:34:39;101001.78;;;2.17;100.00
31096;BME280;17749;51.962;8.560;2023-03-03T09:39:54;101011.50;;;2.31;100.00
31096;BME280;17749;51.962;8.560;2023-03-03T09:56:42;101001.41;;;2.92;100.00
31096;BME280;17749;51.962;8.560;2023-03-03T10:05:01;101007.59;;;3.06;100.00
31096;BME280;17749;51.962;8.560;2023-03-03T10:07:40;101014.69;;;3.15;100.00
31096;BME280;17749;51.962;8.560;2023-03-03T10:15:53;101016.44;;;3.18;100.00
31096;BME280;17749;51.962;8.560;2023-03-03T10:21:09;101018.16;;;3.14;100.00
31096;BME280;17749;51.962;8.560;2023-03-03T10:26:50;101019.94;;;3.17;100.00
31096;BME280;17749;51.962;8.560;2023-03-03T10:30:02;101027.84;;;3.12;100.00
31096;BME280;17749;51.962;8.560;2023-03-03T10:49:40;101030.50;;;3.23;100.00
31096;BME280;17749;51.962;8.560;2023-03-03T10:52:16;101024.41;;;3.32;100.00
31096;BME280;17749;51.962;8.560;2023-03-03T11:03:26;101025.44;;;3.75;100.00
31096;BME280;17749;51.962;8.560;2023-03-03T11:06:01;101025.44;;;3.87;100.00
31096;BME280;17749;51.962;8.560;2023-03-03T11:08:42;101031.63;;;4.05;100.00
31096;BME280;17749;51.962;8.560;2023-03-03T11:11:36;101020.22;;;4.12;100.00
31096;BME280;17749;51.962;8.560;2023-03-03T11:14:22;101014.06;;;4.07;100.00
31096;BME280;17749;51.962;8.560;2023-03-03T11:23:41;101006.16;;;4.19;100.00
31096;BME280;17749;51.962;8.560;2023-03-03T11:25:51;101016.69;;;4.34;100.00
31096;BME280;17749;51.962;8.560;2023-03-03T11:29:05;101018.47;;;4.51;100.00
31096;BME280;17749;51.962;8.560;2023-03-03T11:31:17;101008.81;;;4.56;100.00
31096;BME280;17749;51.962;8.560;2023-03-03T11:34:00;101007.00;;;4.69;100.00
31096;BME280;17749;51.962;8.560;2023-03-03T11:36:55;100999.94;;;4.84;100.00
31096;BME280;17749;51.962;8.560;2023-03-03T11:39:24;101001.69;;;4.96;100.00
31096;BME280;17749;51.962;8.560;2023-03-03T11:44:37;101004.25;;;5.16;100.00
31096;BME280;17749;51.962;8.560;2023-03-03T11:47:48;101000.69;;;5.26;100.00
31096;BME280;17749;51.962;8.560;2023-03-03T11:50:17;100997.13;;;5.34;100.00
31096;BME280;17749;51.962;8.560;2023-03-03T11:55:41;100998.88;;;5.41;100.00
31096;BME280;17749;51.962;8.560;2023-03-03T11:58:30;100995.31;;;5.51;100.00
31096;BME280;17749;51.962;8.560;2023-03-03T12:01:25;100995.19;;;5.69;100.00
31096;BME280;17749;51.962;8.560;2023-03-03T12:03:59;100995.09;;;5.86;100.00
31096;BME280;17749;51.962;8.560;2023-03-03T12:09:38;100983.59;;;5.90;100.00
31096;BME280;17749;51.962;8.560;2023-03-03T12:12:14;100980.94;;;5.92;100.00
31096;BME280;17749;51.962;8.560;2023-03-03T12:15:04;100972.19;;;5.84;100.00
31096;BME280;17749;51.962;8.560;2023-03-03T12:26:39;100958.28;;;5.53;100.00
31096;BME280;17749;51.962;8.560;2023-03-03T12:28:40;100960.06;;;5.52;100.00
31096;BME280;17749;51.962;8.560;2023-03-03T12:37:51;100946.88;;;5.49;100.00
31096;BME280;17749;51.962;8.560;2023-03-03T12:40:26;100945.97;;;5.50;100.00
31096;BME280;17749;51.962;8.560;2023-03-03T12:43:06;100940.78;;;5.35;100.00
31096;BME280;17749;51.962;8.560;2023-03-03T12:45:45;100936.41;;;5.31;100.00
31096;BME280;17749;51.962;8.560;2023-03-03T12:48:26;100938.16;;;5.32;100.00
31096;BME280;17749;51.962;8.560;2023-03-03T12:50:56;100938.13;;;5.42;100.00
31096;BME280;17749;51.962;8.560;2023-03-03T12:55:59;100930.13;;;5.52;100.00
31096;BME280;17749;51.962;8.560;2023-03-03T13:01:36;100924.94;;;5.35;100.00
31096;BME280;17749;51.962;8.560;2023-03-03T13:13:02;100923.16;;;5.40;100.00
31096;BME280;17749;51.962;8.560;2023-03-03T13:15:42;100914.38;;;5.38;100.00
31096;BME280;17749;51.962;8.560;2023-03-03T13:21:26;100909.84;;;5.52;100.00
31096;BME280;17749;51.962;8.560;2023-03-03T13:24:30;100916.84;;;5.58;100.00
31096;BME280;17749;51.962;8.560;2023-03-03T13:27:12;100905.38;;;5.60;100.00
31096;BME280;17749;51.962;8.560;2023-03-03T13:29:56;100902.75;;;5.63;100.00
31096;BME280;17749;51.962;8.560;2023-03-03T13:32:35;100901.81;;;5.67;100.00
31096;BME280;17749;51.962;8.560;2023-03-03T13:37:47;100893.88;;;5.72;100.00
31096;BME280;17749;51.962;8.560;2023-03-03T13:40:18;100901.78;;;5.74;100.00
31096;BME280;17749;51.962;8.560;2023-03-03T13:43:09;100897.38;;;5.74;100.00
31096;BME280;17749;51.962;8.560;2023-03-03T13:51:38;100892.88;;;5.84;100.00
31096;BME280;17749;51.962;8.560;2023-03-03T13:56:48;100887.66;;;5.78;100.00
31096;BME280;17749;51.962;8.560;2023-03-03T14:07:13;100883.19;;;5.86;100.00
31096;BME280;17749;51.962;8.560;2023-03-03T14:12:31;100888.41;;;5.92;100.00
31096;BME280;17749;51.962;8.560;2023-03-03T14:16:00;100888.47;;;5.87;100.00
31096;BME280;17749;51.962;8.560;2023-03-03T14:18:29;100886.69;;;5.88;100.00
31096;BME280;17749;51.962;8.560;2023-03-03T14:21:10;100877.00;;;5.90;100.00
31096;BME280;17749;51.962;8.560;2023-03-03T14:24:01;100878.72;;;5.91;100.00
31096;BME280;17749;51.962;8.560;2023-03-03T14:26:48;100883.13;;;5.92;100.00
31096;BME280;17749;51.962;8.560;2023-03-03T14:29:28;100872.56;;;5.95;100.00
31096;BME280;17749;51.962;8.560;2023-03-03T14:32:20;100870.78;;;5.97;100.00
31096;BME280;17749;51.962;8.560;2023-03-03T14:35:20;100864.66;;;5.95;100.00
31096;BME280;17749;51.962;8.560;2023-03-03T14:37:49;100866.38;;;5.96;100.00
31096;BME280;17749;51.962;8.560;2023-03-03T14:40:30;100868.13;;;5.97;100.00
31096;BME280;17749;51.962;8.560;2023-03-03T14:43:00;100864.63;;;5.98;100.00
31096;BME280;17749;51.962;8.560;2023-03-03T14:45:39;100862.00;;;5.95;100.00
31096;BME280;17749;51.962;8.560;2023-03-03T14:48:20;100864.66;;;5.90;100.00
31096;BME280;17749;51.962;8.560;2023-03-03T14:50:51;100858.53;;;5.85;100.00
31096;BME280;17749;51.962;8.560;2023-03-03T14:55:50;100859.41;;;5.81;100.00
31096;BME280;17749;51.962;8.560;2023-03-03T14:58:38;100859.47;;;5.77;100.00
31096;BME280;17749;51.962;8.560;2023-03-03T15:01:34;100850.72;;;5.71;100.00
31096;BME280;17749;51.962;8.560;2023-03-03T15:09:37;100851.72;;;5.52;100.00
31096;BME280;17749;51.962;8.560;2023-03-03T15:12:33;100851.84;;;5.40;100.00
31096;BME280;17749;51.962;8.560;2023-03-03T15:17:42;100855.31;;;5.45;100.00
31096;BME280;17749;51.962;8.560;2023-03-03T15:23:14;100851.09;;;5.19;100.00
31096;BME280;17749;51.962;8.560;2023-03-03T15:25:59;100855.56;;;5.05;100.00
31096;BME280;17749;51.962;8.560;2023-03-03T15:28:42;100842.41;;;4.99;100.00
31096;BME280;17749;51.962;8.560;2023-03-03T15:31:38;100843.28;;;4.98;100.00
31096;BME280;17749;51.962;8.560;2023-03-03T15:34:20;100843.31;;;4.93;100.00
31096;BME280;17749;51.962;8.560;2023-03-03T15:42:43;100838.97;;;4.78;100.00
31096;BME280;17749;51.962;8.560;2023-03-03T15:54:13;100834.63;;;4.68;100.00
31096;BME280;17749;51.962;8.560;2023-03-03T15:56:49;100837.28;;;4.67;100.00
31096;BME280;17749;51.962;8.560;2023-03-03T16:02:45;100830.25;;;4.58;100.00
31096;BME280;17749;51.962;8.560;2023-03-03T16:08:16;100837.31;;;4.53;100.00
31096;BME280;17749;51.962;8.560;2023-03-03T16:19:02;100831.22;;;4.34;100.00
31096;BME280;17749;51.962;8.560;2023-03-03T16:25:06;100841.81;;;4.18;100.00
31096;BME280;17749;51.962;8.560;2023-03-03T16:27:28;100839.19;;;4.11;100.00
31096;BME280;17749;51.962;8.560;2023-03-03T16:30:27;100840.97;;;4.06;100.00
31096;BME280;17749;51.962;8.560;2023-03-03T16:35:36;100837.44;;;4.01;100.00
31096;BME280;17749;51.962;8.560;2023-03-03T16:38:11;100835.72;;;3.97;100.00
31096;BME280;17749;51.962;8.560;2023-03-03T16:40:53;100850.66;;;3.93;100.00
31096;BME280;17749;51.962;8.560;2023-03-03T16:43:34;100849.78;;;3.86;100.00
31096;BME280;17749;51.962;8.560;2023-03-03T16:51:46;100846.28;;;3.67;100.00
31096;BME280;17749;51.962;8.560;2023-03-03T16:54:24;100850.66;;;3.64;100.00
31096;BME280;17749;51.962;8.560;2023-03-03T16:58:01;100857.69;;;3.57;100.00
31096;BME280;17749;51.962;8.560;2023-03-03T17:00:22;100851.53;;;3.50;100.00
31096;BME280;17749;51.962;8.560;2023-03-03T17:14:07;100859.38;;;3.18;100.00
31096;BME280;17749;51.962;8.560;2023-03-03T17:19:48;100853.22;;;3.05;100.00
31096;BME280;17749;51.962;8.560;2023-03-03T17:25:04;100854.94;;;2.94;100.00
31096;BME280;17749;51.962;8.560;2023-03-03T17:30:05;100861.94;;;2.86;100.00
31096;BME280;17749;51.962;8.560;2023-03-03T17:35:38;100868.03;;;2.74;100.00
31096;BME280;17749;51.962;8.560;2023-03-03T17:40:41;100863.59;;;2.59;100.00
31096;BME280;17749;51.962;8.560;2023-03-03T17:43:23;100867.94;;;2.54;100.00
31096;BME280;17749;51.962;8.560;2023-03-03T17:45:54;100863.53;;;2.47;100.00
31096;BME280;17749;51.962;8.560;2023-03-03T17:49:01;100868.72;;;2.39;100.00
31096;BME280;17749;51.962;8.560;2023-03-03T17:52:02;100872.22;;;2.34;100.00
31096;BME280;17749;51.962;8.560;2023-03-03T17:55:00;100872.16;;;2.28;100.00
31096;BME280;17749;51.962;8.560;2023-03-03T18:49:02;100913.78;;;1.72;100.00
31096;BME280;17749;51.962;8.560;2023-03-03T19:04:45;100916.50;;;1.83;100.00
31096;BME280;17749;51.962;8.560;2023-03-03T19:07:18;100912.16;;;1.84;100.00
31096;BME280;17749;51.962;8.560;2023-03-03T19:09:58;100914.78;;;1.85;100.00
31096;BME280;17749;51.962;8.560;2023-03-03T19:18:04;100922.72;;;1.93;100.00
31096;BME280;17749;51.962;8.560;2023-03-03T19:20:39;100916.63;;;1.95;100.00
31096;BME280;17749;51.962;8.560;2023-03-03T19:23:17;100911.38;;;1.98;100.00
31096;BME280;17749;51.962;8.560;2023-03-03T19:26:18;100905.28;;;2.01;100.00
31096;BME280;17749;51.962;8.560;2023-03-03T19:29:07;100907.06;;;2.05;100.00
31096;BME280;17749;51.962;8.560;2023-03-03T19:31:46;100907.09;;;2.08;100.00
31096;BME280;17749;51.962;8.560;2023-03-03T19:34:29;100899.22;;;2.11;100.00
31096;BME280;17749;51.962;8.560;2023-03-03T19:46:18;100904.53;;;2.22;100.00
31096;BME280;17749;51.962;8.560;2023-03-03T20:09:59;100914.31;;;2.40;100.00
31096;BME280;17749;51.962;8.560;2023-03-03T20:15:19;100917.84;;;2.45;100.00
31096;BME280;17749;51.962;8.560;2023-03-03T20:25:38;100905.59;;;2.50;100.00
31096;BME280;17749;51.962;8.560;2023-03-03T20:34:18;100903.88;;;2.55;100.00
31096;BME280;17749;51.962;8.560;2023-03-03T20:36:57;100895.97;;;2.54;100.00
31096;BME280;17749;51.962;8.560;2023-03-03T20:58:50;100894.22;;;2.56;100.00
31096;BME280;17749;51.962;8.560;2023-03-03T21:04:30;100896.00;;;2.55;100.00
31096;BME280;17749;51.962;8.560;2023-03-03T21:06:58;100896.88;;;2.54;100.00
31096;BME280;17749;51.962;8.560;2023-03-03T21:12:00;100896.88;;;2.54;100.00
31096;BME280;17749;51.962;8.560;2023-03-03T21:14:29;100896.88;;;2.54;100.00
31096;BME280;17749;51.962;8.560;2023-03-03T21:16:58;100894.22;;;2.53;100.00
31096;BME280;17749;51.962;8.560;2023-03-03T21:19:31;100894.22;;;2.56;100.00
31096;BME280;17749;51.962;8.560;2023-03-03T21:21:59;100886.34;;;2.54;100.00
